createdAt,value
2018-09-30T00:00:12.346Z,5.13
2018-09-30T00:01:12.336Z,5.12
2018-09-30T00:02:12.060Z,5.2
2018-09-30T00:03:12.307Z,5.2
2018-09-30T00:04:12.291Z,5.15
2018-09-30T00:05:12.278Z,5.15
2018-09-30T00:06:12.005Z,5.18
2018-09-30T00:07:12.241Z,5.21
2018-09-30T00:08:12.231Z,5.2
2018-09-30T00:09:12.216Z,5.15
2018-09-30T00:10:12.251Z,5.18
2018-09-30T00:11:11.936Z,5.15
2018-09-30T00:12:12.172Z,5.06
2018-09-30T00:13:11.906Z,5.08
2018-09-30T00:14:12.144Z,5.05
2018-09-30T00:15:11.878Z,5
2018-09-30T00:16:12.128Z,4.97
2018-09-30T00:17:12.121Z,5.08
2018-09-30T00:18:12.089Z,5.02
2018-09-30T00:19:11.816Z,4.94
2018-09-30T00:20:11.547Z,4.97
2018-09-30T00:21:11.795Z,5.05
2018-09-30T00:22:12.064Z,5.12
2018-09-30T00:23:12.017Z,5.18
2018-09-30T00:24:12.051Z,5.16
2018-09-30T00:25:11.989Z,5.15
2018-09-30T00:26:11.970Z,5.21
2018-09-30T00:27:11.956Z,5.24
2018-09-30T00:28:11.947Z,5.13
2018-09-30T00:29:11.677Z,5.24
2018-09-30T00:30:11.409Z,5.2
2018-09-30T00:31:12.022Z,5.2
2018-09-30T00:32:11.888Z,5.2
2018-09-30T00:33:11.871Z,5.18
2018-09-30T00:34:11.603Z,5.23
2018-09-30T00:35:11.847Z,5.27
2018-09-30T00:36:11.668Z,5.33
2018-09-30T00:37:11.812Z,5.41
2018-09-30T00:38:11.802Z,5.37
2018-09-30T00:39:11.796Z,5.48
2018-09-30T00:40:11.523Z,5.48
2018-09-30T00:41:11.756Z,5.39
2018-09-30T00:42:11.744Z,5.44
2018-09-30T00:43:11.726Z,5.51
2018-09-30T00:44:11.477Z,5.46
2018-09-30T00:45:11.191Z,5.41
2018-09-30T00:46:11.683Z,5.44
2018-09-30T00:47:11.667Z,5.39
2018-09-30T00:48:11.653Z,5.44
2018-09-30T00:49:11.644Z,5.44
2018-09-30T00:50:11.626Z,5.41
2018-09-30T00:51:11.357Z,5.46
2018-09-30T00:52:11.348Z,5.51
2018-09-30T00:53:11.589Z,5.51
2018-09-30T00:54:11.317Z,5.41
2018-09-30T00:55:11.566Z,5.41
2018-09-30T00:56:11.287Z,5.46
2018-09-30T00:57:11.274Z,5.48
2018-09-30T00:58:11.514Z,5.62
2018-09-30T00:59:11.497Z,5.55
2018-09-30T01:00:11.237Z,5.52
2018-09-30T01:01:11.470Z,5.59
2018-09-30T01:02:11.463Z,5.6
2018-09-30T01:03:11.443Z,5.59
2018-09-30T01:04:11.176Z,5.63
2018-09-30T01:05:11.413Z,5.69
2018-09-30T01:06:11.150Z,5.77
2018-09-30T01:07:11.397Z,5.73
2018-09-30T01:08:11.118Z,5.78
2018-09-30T01:09:11.104Z,5.8
2018-09-30T01:10:11.349Z,5.78
2018-09-30T01:11:11.073Z,5.78
2018-09-30T01:12:11.318Z,5.85
2018-09-30T01:13:11.298Z,5.84
2018-09-30T01:14:11.289Z,5.77
2018-09-30T01:15:11.017Z,5.81
2018-09-30T01:16:11.256Z,5.73
2018-09-30T01:17:11.245Z,5.77
2018-09-30T01:18:11.233Z,5.82
2018-09-30T01:19:10.705Z,5.81
2018-09-30T01:20:11.205Z,5.87
2018-09-30T01:21:11.189Z,5.81
2018-09-30T01:22:11.180Z,5.91
2018-09-30T01:23:10.906Z,5.87
2018-09-30T01:24:11.145Z,5.88
2018-09-30T01:25:10.879Z,5.91
2018-09-30T01:26:11.133Z,5.89
2018-09-30T01:27:10.851Z,5.88
2018-09-30T01:28:10.837Z,5.92
2018-09-30T01:29:10.824Z,5.88
2018-09-30T01:30:10.808Z,5.95
2018-09-30T01:31:10.796Z,5.95
2018-09-30T01:32:11.045Z,5.92
2018-09-30T01:33:10.766Z,5.85
2018-09-30T01:34:10.754Z,5.95
2018-09-30T01:35:10.991Z,5.88
2018-09-30T01:36:10.985Z,5.89
2018-09-30T01:37:10.709Z,5.88
2018-09-30T01:38:10.962Z,5.88
2018-09-30T01:39:10.943Z,5.75
2018-09-30T01:40:10.924Z,5.81
2018-09-30T01:41:10.908Z,5.85
2018-09-30T01:42:10.936Z,5.88
2018-09-30T01:43:10.887Z,5.95
2018-09-30T01:44:10.877Z,5.91
2018-09-30T01:45:10.854Z,5.96
2018-09-30T01:46:10.584Z,5.96
2018-09-30T01:47:10.825Z,6.06
2018-09-30T01:48:10.560Z,5.98
2018-09-30T01:49:10.794Z,6.03
2018-09-30T01:50:10.792Z,5.95
2018-09-30T01:51:10.517Z,6
2018-09-30T01:52:10.760Z,5.99
2018-09-30T01:53:10.749Z,6.05
2018-09-30T01:54:10.730Z,6.05
2018-09-30T01:55:10.464Z,6.05
2018-09-30T01:56:10.449Z,6.05
2018-09-30T01:57:10.436Z,6.06
2018-09-30T01:58:10.673Z,6.07
2018-09-30T01:59:10.658Z,6.09
2018-09-30T02:00:10.394Z,6.05
2018-09-30T02:01:10.383Z,6.05
2018-09-30T02:02:10.363Z,6.07
2018-09-30T02:03:10.097Z,6.13
2018-09-30T02:04:10.336Z,6.1
2018-09-30T02:05:10.576Z,6.05
2018-09-30T02:06:10.310Z,6.06
2018-09-30T02:07:10.295Z,6.06
2018-09-30T02:08:10.284Z,6.1
2018-09-30T02:09:10.522Z,6.1
2018-09-30T02:10:10.525Z,6.02
2018-09-30T02:11:10.241Z,6.05
2018-09-30T02:12:10.229Z,6
2018-09-30T02:13:10.467Z,6.02
2018-09-30T02:14:10.450Z,6.03
2018-09-30T02:15:10.441Z,5.92
2018-09-30T02:16:10.174Z,5.89
2018-09-30T02:17:10.155Z,5.92
2018-09-30T02:18:10.144Z,5.91
2018-09-30T02:19:10.381Z,5.95
2018-09-30T02:20:10.373Z,5.92
2018-09-30T02:21:10.358Z,5.96
2018-09-30T02:22:10.096Z,6
2018-09-30T02:23:10.327Z,5.85
2018-09-30T02:24:10.319Z,5.85
2018-09-30T02:25:10.301Z,5.88
2018-09-30T02:26:10.286Z,5.95
2018-09-30T02:27:10.021Z,5.88
2018-09-30T02:28:10.262Z,5.81
2018-09-30T02:29:10.248Z,5.81
2018-09-30T02:30:09.981Z,5.85
2018-09-30T02:31:09.962Z,5.89
2018-09-30T02:32:10.235Z,5.89
2018-09-30T02:33:10.202Z,5.84
2018-09-30T02:34:10.181Z,5.78
2018-09-30T02:35:10.169Z,5.81
2018-09-30T02:36:09.643Z,5.8
2018-09-30T02:37:09.880Z,5.92
2018-09-30T02:38:10.137Z,5.77
2018-09-30T02:39:10.109Z,5.78
2018-09-30T02:40:09.845Z,5.84
2018-09-30T02:41:10.081Z,5.77
2018-09-30T02:42:10.084Z,5.81
2018-09-30T02:43:10.052Z,5.75
2018-09-30T02:44:10.041Z,5.8
2018-09-30T02:45:10.028Z,5.87
2018-09-30T02:46:09.789Z,5.89
2018-09-30T02:47:09.999Z,5.84
2018-09-30T02:48:09.729Z,5.85
2018-09-30T02:49:10.005Z,5.88
2018-09-30T02:50:09.703Z,5.87
2018-09-30T02:51:09.437Z,5.91
2018-09-30T02:52:09.683Z,5.82
2018-09-30T02:53:09.920Z,5.84
2018-09-30T02:54:09.908Z,5.77
2018-09-30T02:55:09.886Z,5.84
2018-09-30T02:56:09.870Z,5.77
2018-09-30T02:57:09.608Z,5.73
2018-09-30T02:58:09.856Z,5.77
2018-09-30T02:59:09.578Z,5.73
2018-09-30T03:00:09.827Z,5.73
2018-09-30T03:01:09.804Z,5.77
2018-09-30T03:02:09.544Z,5.8
2018-09-30T03:03:09.776Z,5.8
2018-09-30T03:04:09.759Z,5.78
2018-09-30T03:05:09.494Z,5.85
2018-09-30T03:06:09.478Z,5.87
2018-09-30T03:07:09.716Z,5.78
2018-09-30T03:08:09.717Z,5.72
2018-09-30T03:09:09.441Z,5.73
2018-09-30T03:10:09.679Z,5.8
2018-09-30T03:11:09.673Z,5.77
2018-09-30T03:12:09.651Z,5.78
2018-09-30T03:13:09.636Z,5.72
2018-09-30T03:14:09.621Z,5.7
2018-09-30T03:15:09.607Z,5.57
2018-09-30T03:16:09.601Z,5.67
2018-09-30T03:17:09.575Z,5.62
2018-09-30T03:18:09.572Z,5.66
2018-09-30T03:19:09.303Z,5.69
2018-09-30T03:20:09.539Z,5.6
2018-09-30T03:21:09.521Z,5.64
2018-09-30T03:22:09.512Z,5.64
2018-09-30T03:23:09.498Z,5.72
2018-09-30T03:24:09.495Z,5.7
2018-09-30T03:25:08.958Z,5.75
2018-09-30T03:26:09.202Z,5.82
2018-09-30T03:27:09.188Z,5.67
2018-09-30T03:28:09.168Z,5.75
2018-09-30T03:29:09.436Z,5.85
2018-09-30T03:30:09.400Z,5.78
2018-09-30T03:31:09.136Z,5.88
2018-09-30T03:32:09.389Z,5.82
2018-09-30T03:33:09.353Z,5.78
2018-09-30T03:34:09.085Z,5.84
2018-09-30T03:35:09.328Z,5.78
2018-09-30T03:36:08.801Z,5.82
2018-09-30T03:37:09.302Z,5.8
2018-09-30T03:38:09.287Z,5.81
2018-09-30T03:39:09.013Z,5.77
2018-09-30T03:40:09.005Z,5.75
2018-09-30T03:41:09.245Z,5.87
2018-09-30T03:42:09.230Z,5.81
2018-09-30T03:43:09.216Z,5.82
2018-09-30T03:44:09.201Z,5.78
2018-09-30T03:45:08.931Z,5.73
2018-09-30T03:46:08.666Z,5.8
2018-09-30T03:47:09.162Z,5.72
2018-09-30T03:48:08.892Z,5.85
2018-09-30T03:49:09.134Z,5.85
2018-09-30T03:50:08.874Z,5.82
2018-09-30T03:51:09.110Z,5.91
2018-09-30T03:52:09.089Z,5.91
2018-09-30T03:53:09.073Z,5.81
2018-09-30T03:54:09.062Z,5.82
2018-09-30T03:55:08.796Z,5.75
2018-09-30T03:56:09.039Z,5.81
2018-09-30T03:57:09.022Z,5.73
2018-09-30T03:58:09.005Z,5.69
2018-09-30T03:59:09.009Z,5.69
2018-09-30T04:00:09.061Z,5.6
2018-09-30T04:01:08.963Z,5.6
2018-09-30T04:02:08.949Z,5.66
2018-09-30T04:03:08.932Z,5.6
2018-09-30T04:04:08.918Z,5.66
2018-09-30T04:05:08.918Z,5.64
2018-09-30T04:06:08.645Z,5.6
2018-09-30T04:07:08.874Z,5.7
2018-09-30T04:08:08.634Z,5.6
2018-09-30T04:09:08.853Z,5.64
2018-09-30T04:10:09.007Z,5.62
2018-09-30T04:11:08.826Z,5.64
2018-09-30T04:12:08.808Z,5.67
2018-09-30T04:13:08.541Z,5.66
2018-09-30T04:14:08.779Z,5.6
2018-09-30T04:15:08.262Z,5.63
2018-09-30T04:16:08.753Z,5.6
2018-09-30T04:17:08.381Z,5.6
2018-09-30T04:18:08.731Z,5.59
2018-09-30T04:19:08.719Z,5.62
2018-09-30T04:20:08.445Z,5.55
2018-09-30T04:21:08.427Z,5.51
2018-09-30T04:22:08.675Z,5.55
2018-09-30T04:23:08.401Z,5.42
2018-09-30T04:24:08.645Z,5.46
2018-09-30T04:25:08.368Z,5.63
2018-09-30T04:26:08.613Z,5.63
2018-09-30T04:27:08.601Z,5.66
2018-09-30T04:28:08.074Z,5.55
2018-09-30T04:29:08.571Z,5.64
2018-09-30T04:30:08.048Z,5.66
2018-09-30T04:31:08.283Z,5.66
2018-09-30T04:32:08.571Z,5.62
2018-09-30T04:33:08.400Z,5.57
2018-09-30T04:34:08.503Z,5.67
2018-09-30T04:35:08.248Z,5.57
2018-09-30T04:36:08.212Z,5.64
2018-09-30T04:37:08.466Z,5.49
2018-09-30T04:38:08.444Z,5.57
2018-09-30T04:39:08.173Z,5.59
2018-09-30T04:40:08.158Z,5.46
2018-09-30T04:41:08.192Z,5.42
2018-09-30T04:42:08.394Z,5.39
2018-09-30T04:43:08.125Z,5.31
2018-09-30T04:44:08.104Z,5.37
2018-09-30T04:45:08.349Z,5.26
2018-09-30T04:46:08.075Z,5.34
2018-09-30T04:47:07.807Z,5.26
2018-09-30T04:48:08.049Z,5.39
2018-09-30T04:49:08.036Z,5.42
2018-09-30T04:50:08.717Z,5.33
2018-09-30T04:51:08.006Z,5.44
2018-09-30T04:52:07.738Z,5.42
2018-09-30T04:53:08.230Z,5.41
2018-09-30T04:54:08.221Z,5.36
2018-09-30T04:55:07.995Z,5.36
2018-09-30T04:56:08.192Z,5.21
2018-09-30T04:57:07.925Z,5.27
2018-09-30T04:58:07.903Z,5.1
2018-09-30T04:59:08.151Z,5.21
2018-09-30T05:00:08.129Z,5.16
2018-09-30T05:01:07.861Z,5.15
2018-09-30T05:02:08.106Z,5.13
2018-09-30T05:03:08.089Z,5.15
2018-09-30T05:04:08.072Z,5.2
2018-09-30T05:05:07.555Z,5.18
2018-09-30T05:06:08.059Z,5.26
2018-09-30T05:07:08.030Z,5.21
2018-09-30T05:08:08.020Z,5.24
2018-09-30T05:09:08.003Z,5.23
2018-09-30T05:10:07.733Z,5.24
2018-09-30T05:11:07.973Z,5.3
2018-09-30T05:12:07.958Z,5.27
2018-09-30T05:13:07.689Z,5.3
2018-09-30T05:14:07.676Z,5.16
2018-09-30T05:15:07.661Z,5.18
2018-09-30T05:16:08.160Z,5.23
2018-09-30T05:17:07.378Z,5.1
2018-09-30T05:18:07.878Z,5.26
2018-09-30T05:19:07.859Z,5.21
2018-09-30T05:20:07.591Z,5.15
2018-09-30T05:21:07.573Z,5.15
2018-09-30T05:22:07.306Z,5.16
2018-09-30T05:23:07.548Z,5.18
2018-09-30T05:24:07.794Z,5.16
2018-09-30T05:25:07.771Z,5.13
2018-09-30T05:26:07.774Z,5.16
2018-09-30T05:27:07.490Z,5.2
2018-09-30T05:28:07.734Z,5.2
2018-09-30T05:29:07.720Z,5.16
2018-09-30T05:30:07.716Z,5.3
2018-09-30T05:31:07.207Z,5.28
2018-09-30T05:32:07.166Z,5.28
2018-09-30T05:33:07.661Z,5.21
2018-09-30T05:34:07.640Z,5.28
2018-09-30T05:35:07.378Z,5.24
2018-09-30T05:36:07.618Z,5.16
2018-09-30T05:37:07.412Z,5.23
2018-09-30T05:38:07.332Z,5.26
2018-09-30T05:39:07.320Z,5.26
2018-09-30T05:40:07.306Z,5.26
2018-09-30T05:41:07.034Z,5.36
2018-09-30T05:42:07.277Z,5.42
2018-09-30T05:43:07.515Z,5.36
2018-09-30T05:44:07.507Z,5.37
2018-09-30T05:45:07.497Z,5.37
2018-09-30T05:46:07.470Z,5.36
2018-09-30T05:47:07.458Z,5.42
2018-09-30T05:48:07.444Z,5.37
2018-09-30T05:49:07.660Z,5.3
2018-09-30T05:50:06.909Z,5.2
2018-09-30T05:51:07.404Z,5.3
2018-09-30T05:52:07.387Z,5.26
2018-09-30T05:53:07.115Z,5.26
2018-09-30T05:54:07.104Z,5.26
2018-09-30T05:55:07.090Z,5.2
2018-09-30T05:56:07.077Z,5.27
2018-09-30T05:57:07.312Z,5.23
2018-09-30T05:58:07.552Z,5.3
2018-09-30T05:59:06.777Z,5.24
2018-09-30T06:00:07.020Z,5.36
2018-09-30T06:01:07.256Z,5.36
2018-09-30T06:02:06.992Z,5.33
2018-09-30T06:03:07.227Z,5.45
2018-09-30T06:04:07.083Z,5.45
2018-09-30T06:05:06.946Z,5.46
2018-09-30T06:06:06.932Z,5.51
2018-09-30T06:07:07.183Z,5.46
2018-09-30T06:08:07.160Z,5.48
2018-09-30T06:09:07.090Z,5.44
2018-09-30T06:10:06.619Z,5.44
2018-09-30T06:11:07.122Z,5.41
2018-09-30T06:12:07.104Z,5.44
2018-09-30T06:13:07.101Z,5.34
2018-09-30T06:14:07.240Z,5.42
2018-09-30T06:15:06.550Z,5.41
2018-09-30T06:16:06.984Z,5.33
2018-09-30T06:17:07.040Z,5.34
2018-09-30T06:18:06.769Z,5.33
2018-09-30T06:19:06.748Z,5.28
2018-09-30T06:20:06.995Z,5.23
2018-09-30T06:21:06.721Z,5.21
2018-09-30T06:22:06.972Z,5.21
2018-09-30T06:23:06.946Z,5.23
2018-09-30T06:24:07.166Z,5.27
2018-09-30T06:25:06.926Z,5.23
2018-09-30T06:26:06.651Z,5.21
2018-09-30T06:27:06.905Z,5.21
2018-09-30T06:28:06.624Z,5.23
2018-09-30T06:29:06.352Z,5.23
2018-09-30T06:30:06.593Z,5.26
2018-09-30T06:31:06.577Z,5.41
2018-09-30T06:32:07.113Z,5.36
2018-09-30T06:33:06.553Z,5.36
2018-09-30T06:34:06.802Z,5.42
2018-09-30T06:35:06.526Z,5.39
2018-09-30T06:36:06.771Z,5.37
2018-09-30T06:37:06.596Z,5.36
2018-09-30T06:38:06.484Z,5.51
2018-09-30T06:39:06.471Z,5.57
2018-09-30T06:40:06.708Z,5.55
2018-09-30T06:41:06.439Z,5.51
2018-09-30T06:42:06.168Z,5.63
2018-09-30T06:43:06.157Z,5.63
2018-09-30T06:44:06.399Z,5.49
2018-09-30T06:45:07.062Z,5.55
2018-09-30T06:46:06.114Z,5.52
2018-09-30T06:47:06.626Z,5.62
2018-09-30T06:48:06.592Z,5.63
2018-09-30T06:49:06.583Z,5.64
2018-09-30T06:50:06.582Z,5.57
2018-09-30T06:51:06.431Z,5.66
2018-09-30T06:52:06.544Z,5.7
2018-09-30T06:53:06.269Z,5.75
2018-09-30T06:54:06.254Z,5.69
2018-09-30T06:55:06.502Z,5.82
2018-09-30T06:56:06.483Z,5.84
2018-09-30T06:57:06.473Z,5.96
2018-09-30T06:58:06.200Z,5.92
2018-09-30T06:59:06.449Z,6.03
2018-09-30T07:00:06.431Z,5.96
2018-09-30T07:01:05.906Z,6.07
2018-09-30T07:02:05.895Z,6.14
2018-09-30T07:03:06.131Z,6.18
2018-09-30T07:04:06.376Z,6.28
2018-09-30T07:05:06.582Z,6.14
2018-09-30T07:06:06.346Z,6.29
2018-09-30T07:07:06.338Z,6.33
2018-09-30T07:08:05.807Z,6.21
2018-09-30T07:09:06.063Z,6.25
2018-09-30T07:10:06.032Z,6.34
2018-09-30T07:11:06.282Z,6.4
2018-09-30T07:12:06.262Z,6.28
2018-09-30T07:13:05.998Z,6.44
2018-09-30T07:14:06.236Z,6.37
2018-09-30T07:15:05.964Z,6.54
2018-09-30T07:16:05.954Z,6.6
2018-09-30T07:17:06.372Z,6.52
2018-09-30T07:18:05.931Z,6.57
2018-09-30T07:19:05.659Z,6.65
2018-09-30T07:20:06.169Z,6.75
2018-09-30T07:21:05.892Z,6.79
2018-09-30T07:22:05.879Z,6.9
2018-09-30T07:23:06.119Z,6.91
2018-09-30T07:24:06.105Z,6.91
2018-09-30T07:25:05.834Z,7.01
2018-09-30T07:26:05.823Z,7.03
2018-09-30T07:27:06.063Z,7.09
2018-09-30T07:28:06.049Z,7.15
2018-09-30T07:29:05.781Z,7.21
2018-09-30T07:30:06.029Z,7.23
2018-09-30T07:31:05.752Z,7.44
2018-09-30T07:32:05.995Z,7.41
2018-09-30T07:33:05.480Z,7.51
2018-09-30T07:34:05.979Z,7.56
2018-09-30T07:35:05.957Z,7.47
2018-09-30T07:36:05.947Z,7.58
2018-09-30T07:37:05.938Z,7.63
2018-09-30T07:38:05.920Z,7.58
2018-09-30T07:39:05.905Z,7.71
2018-09-30T07:40:05.906Z,7.68
2018-09-30T07:41:05.645Z,7.78
2018-09-30T07:42:05.872Z,7.77
2018-09-30T07:43:05.858Z,7.83
2018-09-30T07:44:05.844Z,7.86
2018-09-30T07:45:05.590Z,7.77
2018-09-30T07:46:05.815Z,7.8
2018-09-30T07:47:05.816Z,7.75
2018-09-30T07:48:05.795Z,7.96
2018-09-30T07:49:05.271Z,8.1
2018-09-30T07:50:05.257Z,8.17
2018-09-30T07:51:05.500Z,8.22
2018-09-30T07:52:05.493Z,8.17
2018-09-30T07:53:05.729Z,8.29
2018-09-30T07:54:05.727Z,8.29
2018-09-30T07:55:05.712Z,8.4
2018-09-30T07:56:05.447Z,8.47
2018-09-30T07:57:05.691Z,8.61
2018-09-30T07:58:05.670Z,8.74
2018-09-30T07:59:05.403Z,8.85
2018-09-30T08:00:05.656Z,8.95
2018-09-30T08:01:05.382Z,8.97
2018-09-30T08:02:05.621Z,9.04
2018-09-30T08:03:05.357Z,9.16
2018-09-30T08:04:05.598Z,9.29
2018-09-30T08:05:05.588Z,9.5
2018-09-30T08:06:05.320Z,9.57
2018-09-30T08:07:05.055Z,9.75
2018-09-30T08:08:05.551Z,9.95
2018-09-30T08:09:05.543Z,10.03
2018-09-30T08:10:05.536Z,10.11
2018-09-30T08:11:05.008Z,10.15
2018-09-30T08:12:05.507Z,10.2
2018-09-30T08:13:05.501Z,10.2
2018-09-30T08:14:05.492Z,10.33
2018-09-30T08:15:05.217Z,10.36
2018-09-30T08:16:05.461Z,10.49
2018-09-30T08:17:05.315Z,10.59
2018-09-30T08:18:05.440Z,10.69
2018-09-30T08:19:05.180Z,10.79
2018-09-30T08:20:05.164Z,10.88
2018-09-30T08:21:05.413Z,10.98
2018-09-30T08:22:05.397Z,11
2018-09-30T08:23:05.386Z,11.13
2018-09-30T08:24:05.261Z,11.03
2018-09-30T08:25:05.110Z,11.08
2018-09-30T08:26:05.364Z,11.18
2018-09-30T08:27:05.089Z,11.05
2018-09-30T08:28:05.339Z,11.08
2018-09-30T08:29:05.070Z,11.15
2018-09-30T08:30:05.059Z,11.18
2018-09-30T08:31:05.308Z,11.13
2018-09-30T08:32:05.294Z,11.24
2018-09-30T08:33:05.029Z,11.33
2018-09-30T08:34:05.017Z,11.24
2018-09-30T08:35:05.014Z,11.3
2018-09-30T08:36:05.255Z,11.34
2018-09-30T08:37:04.986Z,11.35
2018-09-30T08:38:05.253Z,11.51
2018-09-30T08:39:04.966Z,11.57
2018-09-30T08:40:05.523Z,11.46
2018-09-30T08:41:05.212Z,11.52
2018-09-30T08:42:04.941Z,11.56
2018-09-30T08:43:05.182Z,11.48
2018-09-30T08:44:05.273Z,11.56
2018-09-30T08:45:04.911Z,11.56
2018-09-30T08:46:05.159Z,11.59
2018-09-30T08:47:05.146Z,11.6
2018-09-30T08:48:04.880Z,11.57
2018-09-30T08:49:05.128Z,11.61
2018-09-30T08:50:04.859Z,11.68
2018-09-30T08:51:05.123Z,11.75
2018-09-30T08:52:05.092Z,11.81
2018-09-30T08:53:05.088Z,11.86
2018-09-30T08:54:04.567Z,11.97
2018-09-30T08:55:04.813Z,12.03
2018-09-30T08:56:05.388Z,12.01
2018-09-30T08:57:05.050Z,12.13
2018-09-30T08:58:05.040Z,12.13
2018-09-30T08:59:05.034Z,12.16
2018-09-30T09:00:05.026Z,12.28
2018-09-30T09:01:04.761Z,12.34
2018-09-30T09:02:05.009Z,12.41
2018-09-30T09:03:05.207Z,12.48
2018-09-30T09:04:04.731Z,12.56
2018-09-30T09:05:04.466Z,12.7
2018-09-30T09:06:04.719Z,12.78
2018-09-30T09:07:04.956Z,12.89
2018-09-30T09:08:04.944Z,12.92
2018-09-30T09:09:04.689Z,13.02
2018-09-30T09:10:04.683Z,13.1
2018-09-30T09:11:04.411Z,13.16
2018-09-30T09:12:04.657Z,13.29
2018-09-30T09:13:04.907Z,13.44
2018-09-30T09:14:04.637Z,13.51
2018-09-30T09:15:04.632Z,13.55
2018-09-30T09:16:04.875Z,13.69
2018-09-30T09:17:04.877Z,13.76
2018-09-30T09:18:04.873Z,13.83
2018-09-30T09:19:04.856Z,14.08
2018-09-30T09:20:04.590Z,14.09
2018-09-30T09:21:04.841Z,14.19
2018-09-30T09:22:04.575Z,14.26
2018-09-30T09:23:04.568Z,14.36
2018-09-30T09:24:04.815Z,14.38
2018-09-30T09:25:04.811Z,14.48
2018-09-30T09:26:04.552Z,14.51
2018-09-30T09:27:04.533Z,14.53
2018-09-30T09:28:04.569Z,14.61
2018-09-30T09:29:04.772Z,14.69
2018-09-30T09:30:04.773Z,14.71
2018-09-30T09:31:04.759Z,14.66
2018-09-30T09:32:04.809Z,14.82
2018-09-30T09:33:04.694Z,14.83
2018-09-30T09:34:04.484Z,14.94
2018-09-30T09:35:04.603Z,14.97
2018-09-30T09:36:04.466Z,15.01
2018-09-30T09:37:04.200Z,14.98
2018-09-30T09:38:04.712Z,15.02
2018-09-30T09:39:04.697Z,15.05
2018-09-30T09:40:04.695Z,15.08
2018-09-30T09:41:04.683Z,15.15
2018-09-30T09:42:04.423Z,15.2
2018-09-30T09:43:04.664Z,15.26
2018-09-30T09:44:04.411Z,15.4
2018-09-30T09:45:04.401Z,15.43
2018-09-30T09:46:04.137Z,15.4
2018-09-30T09:47:04.525Z,15.53
2018-09-30T09:48:04.639Z,15.52
2018-09-30T09:49:04.635Z,15.67
2018-09-30T09:50:04.366Z,15.59
2018-09-30T09:51:04.613Z,15.7
2018-09-30T09:52:04.603Z,15.7
2018-09-30T09:53:04.347Z,15.75
2018-09-30T09:54:04.597Z,15.71
2018-09-30T09:55:04.329Z,15.77
2018-09-30T09:56:04.328Z,15.81
2018-09-30T09:57:04.315Z,15.88
2018-09-30T09:58:04.307Z,15.92
2018-09-30T09:59:04.552Z,15.81
2018-09-30T10:00:04.307Z,15.91
2018-09-30T10:01:04.285Z,16.02
2018-09-30T10:02:04.540Z,16.08
2018-09-30T10:03:04.274Z,16.1
2018-09-30T10:04:04.537Z,16.07
2018-09-30T10:05:04.678Z,16.06
2018-09-30T10:06:04.255Z,16.08
2018-09-30T10:07:04.255Z,16.06
2018-09-30T10:08:04.297Z,16.04
2018-09-30T10:09:04.233Z,16.06
2018-09-30T10:10:04.486Z,16.04
2018-09-30T10:11:03.968Z,16.04
2018-09-30T10:12:04.214Z,16.06
2018-09-30T10:13:04.369Z,16.18
2018-09-30T10:14:04.206Z,16.25
2018-09-30T10:15:04.466Z,16.32
2018-09-30T10:16:04.458Z,16.27
2018-09-30T10:17:04.447Z,16.29
2018-09-30T10:18:04.184Z,16.27
2018-09-30T10:19:04.175Z,16.21
2018-09-30T10:20:04.432Z,16.26
2018-09-30T10:21:03.907Z,16.36
2018-09-30T10:22:04.157Z,16.52
2018-09-30T10:23:04.410Z,16.54
2018-09-30T10:24:04.399Z,16.47
2018-09-30T10:25:04.395Z,16.48
2018-09-30T10:26:04.382Z,16.57
2018-09-30T10:27:04.122Z,16.58
2018-09-30T10:28:04.118Z,16.54
2018-09-30T10:29:04.117Z,16.62
2018-09-30T10:30:04.377Z,16.51
2018-09-30T10:31:03.846Z,16.66
2018-09-30T10:32:04.357Z,16.69
2018-09-30T10:33:04.344Z,16.49
2018-09-30T10:34:04.078Z,16.58
2018-09-30T10:35:04.077Z,16.51
2018-09-30T10:36:04.072Z,16.44
2018-09-30T10:37:04.327Z,16.42
2018-09-30T10:38:04.056Z,16.42
2018-09-30T10:39:05.034Z,16.51
2018-09-30T10:40:04.317Z,16.45
2018-09-30T10:41:04.293Z,16.51
2018-09-30T10:42:04.033Z,16.48
2018-09-30T10:43:04.032Z,16.52
2018-09-30T10:44:04.279Z,16.54
2018-09-30T10:45:04.019Z,16.57
2018-09-30T10:46:04.013Z,16.59
2018-09-30T10:47:04.271Z,16.67
2018-09-30T10:48:04.256Z,16.66
2018-09-30T10:49:04.254Z,16.69
2018-09-30T10:50:04.245Z,16.73
2018-09-30T10:51:03.987Z,16.8
2018-09-30T10:52:03.983Z,16.92
2018-09-30T10:53:03.726Z,16.88
2018-09-30T10:54:03.969Z,16.88
2018-09-30T10:55:03.959Z,16.97
2018-09-30T10:56:03.953Z,16.92
2018-09-30T10:57:04.225Z,16.87
2018-09-30T10:58:03.687Z,16.88
2018-09-30T10:59:03.952Z,16.97
2018-09-30T11:00:03.937Z,16.99
2018-09-30T11:01:04.189Z,16.91
2018-09-30T11:02:04.178Z,16.99
2018-09-30T11:03:03.924Z,16.94
2018-09-30T11:04:03.912Z,16.94
2018-09-30T11:05:03.906Z,16.99
2018-09-30T11:06:04.156Z,16.91
2018-09-30T11:07:03.893Z,16.95
2018-09-30T11:08:04.146Z,17.05
2018-09-30T11:09:03.886Z,17.02
2018-09-30T11:10:04.090Z,17.03
2018-09-30T11:11:04.135Z,17.1
2018-09-30T11:12:03.872Z,17.09
2018-09-30T11:13:03.865Z,17.09
2018-09-30T11:14:03.855Z,17.06
2018-09-30T11:15:03.856Z,17.09
2018-09-30T11:16:03.931Z,17.06
2018-09-30T11:17:03.839Z,17.06
2018-09-30T11:18:03.839Z,17.02
2018-09-30T11:19:03.828Z,17.07
2018-09-30T11:20:03.822Z,17.09
2018-09-30T11:21:03.818Z,17.2
2018-09-30T11:22:04.065Z,17.22
2018-09-30T11:23:03.810Z,17.32
2018-09-30T11:24:04.061Z,17.27
2018-09-30T11:25:04.051Z,17.25
2018-09-30T11:26:04.048Z,17.21
2018-09-30T11:27:03.786Z,17.22
2018-09-30T11:28:03.779Z,17.21
2018-09-30T11:29:04.035Z,17.22
2018-09-30T11:30:03.769Z,17.13
2018-09-30T11:31:03.770Z,17.12
2018-09-30T11:32:04.179Z,17.17
2018-09-30T11:33:04.013Z,17.15
2018-09-30T11:34:04.006Z,17.15
2018-09-30T11:35:03.491Z,17.13
2018-09-30T11:36:03.737Z,17.06
2018-09-30T11:37:03.732Z,17.15
2018-09-30T11:38:03.984Z,17.1
2018-09-30T11:39:03.992Z,17.06
2018-09-30T11:40:03.731Z,17.09
2018-09-30T11:41:03.969Z,17.09
2018-09-30T11:42:03.453Z,17.12
2018-09-30T11:43:03.704Z,17.06
2018-09-30T11:44:03.700Z,17.06
2018-09-30T11:45:03.695Z,17
2018-09-30T11:46:03.688Z,17.03
2018-09-30T11:47:03.690Z,17
2018-09-30T11:48:03.933Z,17.02
2018-09-30T11:49:03.670Z,17.07
2018-09-30T11:50:03.922Z,17.02
2018-09-30T11:51:03.922Z,17.05
2018-09-30T11:52:03.653Z,16.94
2018-09-30T11:53:03.659Z,16.94
2018-09-30T11:54:03.645Z,16.91
2018-09-30T11:55:03.911Z,16.84
2018-09-30T11:56:03.639Z,16.81
2018-09-30T11:57:03.883Z,16.81
2018-09-30T11:58:03.883Z,16.76
2018-09-30T11:59:03.875Z,16.77
2018-09-30T12:00:03.869Z,16.69
2018-09-30T12:01:03.926Z,16.73
2018-09-30T12:02:03.865Z,16.76
2018-09-30T12:03:03.601Z,16.7
2018-09-30T12:04:03.593Z,16.73
2018-09-30T12:05:03.840Z,16.74
2018-09-30T12:06:03.846Z,16.7
2018-09-30T12:07:03.831Z,16.74
2018-09-30T12:08:03.576Z,16.73
2018-09-30T12:09:03.824Z,16.76
2018-09-30T12:10:03.564Z,16.73
2018-09-30T12:11:03.809Z,16.73
2018-09-30T12:12:03.821Z,16.74
2018-09-30T12:13:03.545Z,16.69
2018-09-30T12:14:03.542Z,16.7
2018-09-30T12:15:03.798Z,16.73
2018-09-30T12:16:03.783Z,16.65
2018-09-30T12:17:03.788Z,16.58
2018-09-30T12:18:03.827Z,16.62
2018-09-30T12:19:03.516Z,16.54
2018-09-30T12:20:03.769Z,16.48
2018-09-30T12:21:03.508Z,16.48
2018-09-30T12:22:03.757Z,16.45
2018-09-30T12:23:03.746Z,16.45
2018-09-30T12:24:03.749Z,16.45
2018-09-30T12:25:03.485Z,16.39
2018-09-30T12:26:03.673Z,16.36
2018-09-30T12:27:03.484Z,16.32
2018-09-30T12:28:03.468Z,16.29
2018-09-30T12:29:03.720Z,16.32
2018-09-30T12:30:03.714Z,16.27
2018-09-30T12:31:03.707Z,16.32
2018-09-30T12:32:03.699Z,16.3
2018-09-30T12:33:03.443Z,16.34
2018-09-30T12:34:03.696Z,16.33
2018-09-30T12:35:03.438Z,16.45
2018-09-30T12:36:03.685Z,16.34
2018-09-30T12:37:03.673Z,16.4
2018-09-30T12:38:03.675Z,16.49
2018-09-30T12:39:03.660Z,16.4
2018-09-30T12:40:03.405Z,16.44
2018-09-30T12:41:03.650Z,16.44
2018-09-30T12:42:03.648Z,16.39
2018-09-30T12:43:03.643Z,16.47
2018-09-30T12:44:03.641Z,16.47
2018-09-30T12:45:03.371Z,16.45
2018-09-30T12:46:03.371Z,16.45
2018-09-30T12:47:03.365Z,16.45
2018-09-30T12:48:03.364Z,16.39
2018-09-30T12:49:03.356Z,16.36
2018-09-30T12:50:03.349Z,16.39
2018-09-30T12:51:03.091Z,16.45
2018-09-30T12:52:03.596Z,16.49
2018-09-30T12:53:03.330Z,16.48
2018-09-30T12:54:03.326Z,16.44
2018-09-30T12:55:03.320Z,16.58
2018-09-30T12:56:03.315Z,16.58
2018-09-30T12:57:03.317Z,16.57
2018-09-30T12:58:03.859Z,16.58
2018-09-30T12:59:03.555Z,16.62
2018-09-30T13:00:03.551Z,16.58
2018-09-30T13:01:03.542Z,16.59
2018-09-30T13:02:03.296Z,16.66
2018-09-30T13:03:03.538Z,16.69
2018-09-30T13:04:03.525Z,16.74
2018-09-30T13:05:03.012Z,16.69
2018-09-30T13:06:03.523Z,16.69
2018-09-30T13:07:03.512Z,16.65
2018-09-30T13:08:03.252Z,16.69
2018-09-30T13:09:03.244Z,16.63
2018-09-30T13:10:03.493Z,16.66
2018-09-30T13:11:03.234Z,16.65